Time;durP1;ratioP1;P1;durP2;ratioP2;P2;SDS_P1;SDS_P2;PMS_P1;PMS_P2;Temp;Humidity;BMP_temperature;BMP_pressure;BME280_temperature;BME280_humidity;BME280_pressure;Samples;Min_cycle;Max_cycle;Signal;HPM_P1;HPM_P2
2024/01/28 00:02:55;;;;;;;39.73;11.10;;;;;;;-2.87;100.00;102838.75;10569134;28;20123;-78
2024/01/28 00:07:55;;;;;;;23.30;15.53;;;;;;;-2.84;100.00;102828.91;10569195;28;20039;-78
2024/01/28 00:12:56;;;;;;;18.50;13.37;;;;;;;-2.78;100.00;102820.19;10552235;28;20146;-78
2024/01/28 00:17:56;;;;;;;26.50;17.90;;;;;;;-2.83;100.00;102814.44;10568575;28;20062;-78
2024/01/28 00:22:57;;;;;;;27.83;15.30;;;;;;;-2.95;100.00;102812.09;10569087;28;20558;-79
2024/01/28 00:27:57;;;;;;;20.83;14.83;;;;;;;-2.99;100.00;102803.78;10568128;28;20126;-79
2024/01/28 00:32:58;;;;;;;23.83;13.57;;;;;;;-3.06;100.00;102802.03;10549026;28;20120;-80
2024/01/28 00:37:59;;;;;;;27.40;13.90;;;;;;;-3.17;100.00;102786.88;10560934;27;21028;-79
2024/01/28 00:43:00;;;;;;;16.43;13.03;;;;;;;-3.15;100.00;102785.44;10551860;28;20056;-78
2024/01/28 00:48:00;;;;;;;25.07;13.20;;;;;;;-3.23;100.00;102769.06;10546549;27;20577;-78
2024/01/28 00:53:01;;;;;;;18.73;12.37;;;;;;;-3.04;100.00;102769.84;10551177;28;20131;-79
2024/01/28 00:58:02;;;;;;;24.43;13.60;;;;;;;-2.97;100.00;102762.28;10566933;27;20051;-78
2024/01/28 01:03:02;;;;;;;30.65;12.95;;;;;;;-2.82;100.00;102758.25;10533272;28;20043;-78
2024/01/28 01:08:03;;;;;;;23.37;13.27;;;;;;;-2.84;100.00;102759.69;10584250;27;20047;-78
2024/01/28 01:13:04;;;;;;;36.63;17.63;;;;;;;-2.92;100.00;102749.13;10567460;28;20040;-78
2024/01/28 01:18:05;;;;;;;26.50;11.53;;;;;;;-2.85;100.00;102750.16;10555070;27;20067;-79
2024/01/28 01:23:05;;;;;;;20.90;12.67;;;;;;;-2.95;100.00;102757.38;10565804;28;20039;-78
2024/01/28 01:28:06;;;;;;;18.73;12.00;;;;;;;-3.14;100.00;102759.09;10556182;27;20153;-79
2024/01/28 01:33:06;;;;;;;14.70;9.43;;;;;;;-3.30;100.00;102749.38;10547999;28;20042;-79
2024/01/28 01:38:07;;;;;;;21.43;14.33;;;;;;;-3.36;100.00;102752.78;10578574;27;20126;-79
2024/01/28 01:43:11;;;;;;;22.00;13.83;;;;;;;-3.43;100.00;102744.28;10552432;27;20126;-79
2024/01/28 01:48:12;;;;;;;22.02;11.40;;;;;;;-3.51;100.00;102742.31;10550763;27;20032;-79
2024/01/28 01:53:12;;;;;;;37.77;11.83;;;;;;;-3.60;100.00;102754.78;10564755;27;20050;-79
2024/01/28 01:58:13;;;;;;;21.40;9.43;;;;;;;-3.81;100.00;102750.28;10548329;28;20046;-79
2024/01/28 02:03:13;;;;;;;15.93;10.93;;;;;;;-3.96;100.00;102749.09;10575449;27;20027;-81
2024/01/28 02:08:14;;;;;;;17.97;11.67;;;;;;;-3.95;100.00;102745.84;10546855;27;20501;-79
2024/01/28 02:13:14;;;;;;;18.73;9.80;;;;;;;-4.01;100.00;102742.44;10576740;28;20066;-79
2024/01/28 02:18:15;;;;;;;24.90;11.30;;;;;;;-4.17;100.00;102745.47;10563675;28;20042;-79
2024/01/28 02:23:22;;;;;;;11.97;9.33;;;;;;;-4.25;100.00;102753.72;10514613;28;20115;-79
2024/01/28 02:28:22;;;;;;;15.35;10.52;;;;;;;-4.21;100.00;102735.53;10599971;27;20071;-80
2024/01/28 02:33:23;;;;;;;13.60;8.93;;;;;;;-4.27;100.00;102721.91;10530206;28;20474;-79
2024/01/28 02:38:23;;;;;;;17.43;11.37;;;;;;;-4.23;100.00;102726.72;10541045;28;20045;-81
2024/01/28 02:43:24;;;;;;;14.03;11.30;;;;;;;-4.34;100.00;102730.38;10584915;28;20054;-80
2024/01/28 02:48:24;;;;;;;22.67;11.13;;;;;;;-4.23;100.00;102731.84;10568047;27;20046;-80
2024/01/28 02:53:25;;;;;;;12.60;10.33;;;;;;;-4.21;100.00;102720.19;10555446;27;20555;-80
2024/01/28 02:58:26;;;;;;;14.43;11.67;;;;;;;-4.24;100.00;102698.41;10556228;28;20450;-80
2024/01/28 03:03:27;;;;;;;19.53;10.33;;;;;;;-4.32;100.00;102699.91;10571245;27;20047;-80
2024/01/28 03:08:28;;;;;;;18.20;10.38;;;;;;;-4.33;100.00;102681.09;10553692;28;20657;-80
2024/01/28 03:13:28;;;;;;;15.27;10.17;;;;;;;-4.20;100.00;102676.00;10570792;27;20114;-80
2024/01/28 03:18:29;;;;;;;22.00;10.03;;;;;;;-4.09;100.00;102661.19;10543256;27;20066;-80
2024/01/28 03:23:29;;;;;;;16.97;9.50;;;;;;;-4.08;100.00;102663.03;10554149;28;20039;-80
2024/01/28 03:28:30;;;;;;;18.00;9.67;;;;;;;-4.13;100.00;102652.19;10553827;27;20107;-81
2024/01/28 03:33:30;;;;;;;15.57;9.40;;;;;;;-4.21;100.00;102657.91;10571522;28;20044;-81
2024/01/28 03:38:31;;;;;;;15.83;8.80;;;;;;;-4.34;100.00;102656.25;10577676;27;20060;-80
2024/01/28 03:43:31;;;;;;;28.60;8.90;;;;;;;-4.37;100.00;102654.88;10549709;27;20059;-80
2024/01/28 03:48:32;;;;;;;12.17;8.50;;;;;;;-4.48;100.00;102651.78;10559268;27;20169;-80
2024/01/28 03:53:33;;;;;;;20.27;9.53;;;;;;;-4.60;100.00;102655.22;10536285;28;20375;-80
2024/01/28 03:58:33;;;;;;;17.80;8.98;;;;;;;-4.52;100.00;102654.63;10586343;27;20060;-81
2024/01/28 04:03:34;;;;;;;16.57;9.07;;;;;;;-4.55;100.00;102651.66;10585382;27;20123;-82
2024/01/28 04:08:35;;;;;;;17.13;10.30;;;;;;;-4.59;100.00;102651.97;10553126;28;20169;-82
2024/01/28 04:13:36;;;;;;;24.07;7.47;;;;;;;-4.63;100.00;102648.06;10576330;27;20186;-81
2024/01/28 04:18:36;;;;;;;20.40;9.10;;;;;;;-4.76;100.00;102658.22;10516989;27;20558;-82
2024/01/28 04:23:39;;;;;;;18.13;8.33;;;;;;;-4.80;100.00;102648.31;10537505;28;20099;-82
2024/01/28 04:28:40;;;;;;;14.55;7.95;;;;;;;-4.73;100.00;102645.88;10533425;27;20127;-80
2024/01/28 04:33:41;;;;;;;;;;;;;;;-4.61;100.00;102651.75;10551307;28;20561;-82
2024/01/28 04:38:42;;;;;;;16.57;6.93;;;;;;;-4.52;100.00;102638.41;10556307;27;20010;-81
2024/01/28 04:43:42;;;;;;;46.73;12.97;;;;;;;-4.45;100.00;102634.31;10534054;28;21928;-80
2024/01/28 04:48:43;;;;;;;21.63;9.23;;;;;;;-4.32;100.00;102633.41;10557097;27;20122;-80
2024/01/28 04:53:44;;;;;;;20.40;8.02;;;;;;;-4.32;100.00;102621.56;10549928;28;20049;-81
2024/01/28 04:58:44;;;;;;;12.57;7.87;;;;;;;-4.49;100.00;102623.47;10566423;27;20431;-80
2024/01/28 05:03:45;;;;;;;15.03;8.97;;;;;;;-4.65;100.00;102623.00;10549715;28;20040;-79
2024/01/28 05:08:45;;;;;;;10.37;6.37;;;;;;;-4.70;100.00;102616.34;10567387;27;20082;-78
2024/01/28 05:13:46;;;;;;;10.13;7.17;;;;;;;-4.76;100.00;102607.13;10598125;27;20090;-81
2024/01/28 05:18:46;;;;;;;19.53;8.10;;;;;;;-4.73;100.00;102606.66;10562620;28;20488;-82
2024/01/28 05:23:47;;;;;;;10.43;7.13;;;;;;;-4.83;100.00;102611.22;10532600;28;20035;-81
2024/01/28 05:28:47;;;;;;;13.17;7.50;;;;;;;-4.89;100.00;102599.44;10589191;27;20067;-82
2024/01/28 05:33:48;;;;;;;18.70;8.40;;;;;;;-4.86;100.00;102593.81;10548509;28;20046;-82
2024/01/28 05:38:48;;;;;;;9.27;7.07;;;;;;;-4.88;100.00;102582.47;10554963;27;20048;-82
2024/01/28 05:43:49;;;;;;;7.50;5.67;;;;;;;-4.86;100.00;102588.69;10536683;27;20123;-82
2024/01/28 05:48:49;;;;;;;10.27;6.60;;;;;;;-4.97;100.00;102593.97;10534067;28;20040;-82
2024/01/28 05:53:50;;;;;;;15.43;7.73;;;;;;;-5.04;100.00;102584.56;10559966;27;20102;-82
2024/01/28 05:58:50;;;;;;;12.70;5.73;;;;;;;-5.02;100.00;102572.91;10574063;27;20126;-82
2024/01/28 06:03:51;;;;;;;14.07;5.87;;;;;;;-5.02;100.00;102575.47;10573736;28;20128;-81
2024/01/28 06:08:51;;;;;;;11.93;7.07;;;;;;;-5.09;100.00;102573.69;10550977;28;20092;-85
2024/01/28 06:13:52;;;;;;;10.57;7.27;;;;;;;-4.95;100.00;102561.91;10527127;28;20122;-82
2024/01/28 06:18:52;;;;;;;13.73;6.43;;;;;;;-4.99;100.00;102554.53;10575401;28;20039;-82
2024/01/28 06:23:53;;;;;;;10.67;7.80;;;;;;;-4.96;100.00;102558.44;10552983;28;20487;-84
2024/01/28 06:28:54;;;;;;;8.27;5.70;;;;;;;-5.01;100.00;102547.56;10572729;27;20135;-82
2024/01/28 06:33:55;;;;;;;11.32;6.40;;;;;;;-5.13;100.00;102540.78;10556073;27;20100;-82
2024/01/28 06:38:56;;;;;;;9.50;5.00;;;;;;;-5.14;100.00;102538.03;10553395;28;20089;-82
2024/01/28 06:43:56;;;;;;;18.80;9.20;;;;;;;-5.01;100.00;102534.81;10570602;27;20475;-83
2024/01/28 06:48:57;;;;;;;17.93;9.53;;;;;;;-4.81;100.00;102528.03;10570503;27;20130;-82
2024/01/28 06:53:57;;;;;;;19.80;8.33;;;;;;;-4.81;100.00;102518.72;10580436;27;20047;-80
2024/01/28 06:58:58;;;;;;;19.33;9.10;;;;;;;-4.94;100.00;102523.81;10590449;27;20118;-80
2024/01/28 07:03:58;;;;;;;20.33;8.87;;;;;;;-4.97;100.00;102525.94;10579447;27;20028;-80
2024/01/28 07:08:59;;;;;;;13.77;6.70;;;;;;;-4.99;100.00;102529.00;10587200;27;20110;-82
2024/01/28 07:13:59;;;;;;;20.77;12.97;;;;;;;-4.84;100.00;102523.41;10589791;27;20126;-81
2024/01/28 07:19:00;;;;;;;11.40;6.47;;;;;;;-4.90;100.00;102522.59;10571269;27;20036;-81
2024/01/28 07:24:02;;;;;;;13.73;10.10;;;;;;;-4.87;100.00;102520.44;10545780;27;20491;-83
2024/01/28 07:29:04;;;;;;;16.42;9.23;;;;;;;-4.92;100.00;102512.16;10551468;28;20043;-83
2024/01/28 07:34:07;;;;;;;32.90;10.13;;;;;;;-4.90;100.00;102504.69;10544659;27;20058;-84
2024/01/28 07:39:07;;;;;;;16.03;8.20;;;;;;;-4.90;100.00;102517.47;10550088;27;20035;-84
2024/01/28 07:44:08;;;;;;;19.90;9.13;;;;;;;-4.77;100.00;102502.19;10548387;27;20114;-84
2024/01/28 07:49:09;;;;;;;14.53;8.30;;;;;;;-4.66;100.00;102495.94;10586616;27;20035;-83
2024/01/28 07:54:09;;;;;;;16.17;8.87;;;;;;;-4.59;100.00;102499.56;10561551;27;20056;-85
2024/01/28 07:59:10;;;;;;;17.60;8.13;;;;;;;-4.50;100.00;102501.50;10577550;27;20059;-84
2024/01/28 08:04:10;;;;;;;17.90;9.60;;;;;;;-4.40;100.00;102493.41;10569253;27;20547;-83
2024/01/28 08:09:11;;;;;;;23.67;9.07;;;;;;;-4.20;100.00;102484.22;10567657;27;20130;-83
2024/01/28 08:14:11;;;;;;;29.73;10.27;;;;;;;-3.74;100.00;102481.69;10553802;27;20545;-82
2024/01/28 08:19:12;;;;;;;20.50;10.17;;;;;;;-3.46;100.00;102479.22;10586008;27;20054;-82
2024/01/28 08:24:12;;;;;;;19.27;11.43;;;;;;;-3.52;100.00;102478.44;10551622;27;20375;-82
2024/01/28 08:29:13;;;;;;;15.77;9.03;;;;;;;-3.58;100.00;102474.34;10575253;27;20119;-82
2024/01/28 08:34:14;;;;;;;15.30;8.90;;;;;;;-3.38;100.00;102482.78;10556852;27;20036;-84
2024/01/28 08:39:16;;;;;;;22.00;9.57;;;;;;;-3.41;100.00;102475.63;10531277;28;20039;-82
2024/01/28 08:44:20;;;;;;;10.57;7.00;;;;;;;-3.31;100.00;102486.34;10536348;28;20040;-80
2024/01/28 08:49:21;;;;;;;16.23;10.70;;;;;;;-3.12;100.00;102481.94;10564927;27;20052;-79
2024/01/28 08:54:21;;;;;;;27.35;11.65;;;;;;;-2.92;100.00;102470.78;10583596;27;20067;-80
2024/01/28 08:59:22;;;;;;;19.13;11.37;;;;;;;-2.76;100.00;102471.06;10548401;28;20514;-81
2024/01/28 09:04:24;;;;;;;17.07;10.27;;;;;;;-2.33;100.00;102484.88;10539033;27;20063;-80
2024/01/28 09:09:29;;;;;;;18.38;9.90;;;;;;;-2.03;100.00;102474.03;10545924;28;20555;-79
2024/01/28 09:14:30;;;;;;;23.73;11.68;;;;;;;-1.81;100.00;102468.25;10563427;27;20082;-80
2024/01/28 09:19:30;;;;;;;17.47;10.83;;;;;;;-1.63;100.00;102469.63;10532157;27;20084;-79
2024/01/28 09:24:31;;;;;;;21.33;10.20;;;;;;;-1.44;100.00;102458.09;10578509;27;20649;-78
2024/01/28 09:29:31;;;;;;;18.73;8.23;;;;;;;-1.23;100.00;102463.25;10580920;27;20040;-78
2024/01/28 09:34:32;;;;;;;27.60;8.40;;;;;;;-0.85;100.00;102450.59;10533391;27;20046;-78
2024/01/28 09:39:32;;;;;;;14.73;8.90;;;;;;;-0.49;100.00;102457.34;10579590;27;20562;-78
2024/01/28 09:44:33;;;;;;;13.20;8.43;;;;;;;-0.28;100.00;102456.38;10558086;28;20046;-80
2024/01/28 09:49:39;;;;;;;11.30;7.57;;;;;;;0.02;100.00;102457.16;10562651;28;20375;-77
2024/01/28 09:54:41;;;;;;;13.20;7.60;;;;;;;0.29;100.00;102452.63;10548775;28;20241;-78
2024/01/28 09:59:42;;;;;;;9.30;5.43;;;;;;;0.68;100.00;102438.00;10561617;27;20039;-77
2024/01/28 10:04:45;;;;;;;15.57;6.07;;;;;;;1.06;100.00;102425.91;10528717;28;20376;-78
2024/01/28 10:09:45;;;;;;;14.75;5.60;;;;;;;1.34;100.00;102416.06;10545654;28;20040;-78
2024/01/28 10:14:52;;;;;;;13.52;6.15;;;;;;;1.70;100.00;102395.00;10571144;28;20126;-79
2024/01/28 10:19:53;;;;;;;13.45;5.82;;;;;;;2.30;100.00;102359.13;10564243;28;20032;-78
2024/01/28 10:24:53;;;;;;;10.43;4.70;;;;;;;3.51;100.00;102340.34;10540426;28;20470;-79
2024/01/28 10:29:54;;;;;;;7.13;3.75;;;;;;;5.53;100.00;102271.16;10544327;28;20127;-78
2024/01/28 10:34:54;;;;;;;6.82;4.32;;;;;;;8.37;100.00;102261.16;10529461;28;20083;-80
2024/01/28 10:39:58;;;;;;;13.93;4.65;;;;;;;10.81;100.00;102449.28;10553181;28;20550;-79
2024/01/28 10:44:58;;;;;;;9.05;4.07;;;;;;;12.56;100.00;102570.59;10534922;28;20043;-80
2024/01/28 10:49:59;;;;;;;8.77;3.22;;;;;;;13.14;100.00;102612.03;10504948;28;20127;-79
2024/01/28 10:55:00;;;;;;;8.65;2.70;;;;;;;13.71;100.00;102609.53;10580812;27;20119;-78
2024/01/28 11:00:03;;;;;;;8.52;3.83;;;;;;;13.37;98.90;102615.25;10549343;28;20055;-79
2024/01/28 11:05:04;;;;;;;10.02;3.47;;;;;;;12.92;96.19;102613.25;10550945;28;20387;-80
2024/01/28 11:10:05;;;;;;;6.93;3.53;;;;;;;13.71;96.93;102601.63;10565089;27;20046;-80
2024/01/28 11:15:15;;;;;;;5.07;4.03;;;;;;;13.39;85.14;102592.56;10559461;27;20562;-80
2024/01/28 11:20:23;;;;;;;5.27;2.63;;;;;;;10.99;100.00;102590.25;10574309;27;20475;-80
2024/01/28 11:25:29;;;;;;;6.72;3.22;;;;;;;9.82;100.00;102591.06;10537826;27;20281;-80
2024/01/28 11:30:30;;;;;;;8.55;2.88;;;;;;;9.25;100.00;102567.50;10500599;28;20474;-81
2024/01/28 11:35:31;;;;;;;6.10;2.60;;;;;;;10.03;100.00;102575.22;10557855;27;20036;-81
2024/01/28 11:40:38;;;;;;;5.10;2.88;;;;;;;10.35;100.00;102571.53;10534997;27;20120;-81
2024/01/28 11:45:38;;;;;;;4.65;2.55;;;;;;;10.96;100.00;102569.09;10552971;28;20055;-81
2024/01/28 11:50:39;;;;;;;15.10;4.22;;;;;;;10.34;100.00;102562.78;10561314;27;20142;-81
2024/01/28 11:55:39;;;;;;;9.88;3.95;;;;;;;9.19;100.00;102558.22;10555681;27;20041;-81
2024/01/28 12:00:41;;;;;;;12.18;4.22;;;;;;;8.88;100.00;102542.69;10575716;27;20130;-81
2024/01/28 12:05:41;;;;;;;6.30;3.77;;;;;;;10.22;100.00;102540.91;10536688;27;20039;-81
2024/01/28 12:10:42;;;;;;;7.68;2.63;;;;;;;10.62;100.00;102540.41;10554431;27;20043;-82
2024/01/28 12:15:43;;;;;;;4.38;2.50;;;;;;;11.36;100.00;102543.13;10587289;27;20123;-80
2024/01/28 12:20:49;;;;;;;6.60;3.30;;;;;;;10.81;100.00;102532.22;10545627;27;20080;-80
2024/01/28 12:25:49;;;;;;;4.85;2.65;;;;;;;11.13;100.00;102528.41;10550413;28;20039;-81
2024/01/28 12:30:53;;;;;;;9.48;3.42;;;;;;;10.87;100.00;102516.94;10567770;27;20044;-80
2024/01/28 12:35:53;;;;;;;6.68;3.17;;;;;;;11.09;100.00;102511.53;10567448;28;20043;-81
2024/01/28 12:40:54;;;;;;;6.68;3.70;;;;;;;11.26;100.00;102502.28;10578737;27;20126;-80
2024/01/28 12:45:54;;;;;;;8.88;3.20;;;;;;;11.22;100.00;102504.53;10565745;27;20133;-81
2024/01/28 12:50:55;;;;;;;10.25;4.00;;;;;;;12.08;100.00;102491.28;10524996;28;20119;-82
2024/01/28 12:55:55;;;;;;;6.45;2.45;;;;;;;13.31;91.93;102493.88;10539890;28;20501;-80
2024/01/28 13:00:56;;;;;;;4.72;2.60;;;;;;;13.53;90.39;102487.38;10529047;28;20040;-80
2024/01/28 13:05:56;;;;;;;7.85;4.25;;;;;;;13.90;84.14;102479.06;10504766;28;20122;-81
2024/01/28 13:11:00;;;;;;;7.88;2.17;;;;;;;14.97;72.79;102467.66;10512924;28;20068;-79
2024/01/28 13:16:01;;;;;;;5.82;3.10;;;;;;;15.55;66.56;102457.53;10527227;28;20114;-77
2024/01/28 13:21:02;;;;;;;10.70;3.30;;;;;;;15.78;62.26;102453.44;10527441;28;20159;-79
2024/01/28 13:26:02;;;;;;;9.02;3.85;;;;;;;15.39;60.64;102443.53;10510474;28;20066;-78
2024/01/28 13:31:03;;;;;;;6.28;2.95;;;;;;;15.86;60.99;102438.00;10502316;28;20072;-80
2024/01/28 13:36:03;;;;;;;6.07;2.70;;;;;;;16.29;59.71;102432.28;10504773;28;20044;-80
2024/01/28 13:41:04;;;;;;;6.18;2.97;;;;;;;16.59;55.47;102431.94;10494653;28;20074;-80
2024/01/28 13:46:04;;;;;;;14.63;3.20;;;;;;;15.81;56.05;102423.66;10554866;28;20035;-80
2024/01/28 13:51:05;;;;;;;5.80;2.83;;;;;;;15.12;64.01;102404.31;10497620;28;20040;-80
2024/01/28 13:56:06;;;;;;;4.25;2.05;;;;;;;15.59;61.90;102414.66;10513675;28;20036;-80
2024/01/28 14:01:06;;;;;;;4.20;3.08;;;;;;;15.95;59.01;102396.25;10474371;28;20075;-81
2024/01/28 14:06:07;;;;;;;7.47;3.72;;;;;;;15.77;60.17;102393.56;10514400;28;21571;-84
2024/01/28 14:11:07;;;;;;;10.52;2.90;;;;;;;15.93;62.64;102389.06;10517358;28;20036;-79
2024/01/28 14:16:08;;;;;;;10.63;3.13;;;;;;;15.92;62.52;102387.25;10484693;28;20101;-81
2024/01/28 14:21:08;;;;;;;7.53;3.00;;;;;;;15.14;67.76;102375.38;10483404;28;20399;-82
2024/01/28 14:26:09;;;;;;;3.28;2.35;;;;;;;14.44;75.87;102379.50;10526583;28;20102;-79
2024/01/28 14:31:09;;;;;;;9.88;2.83;;;;;;;13.80;85.31;102364.47;10491934;28;20695;-79
2024/01/28 14:36:10;;;;;;;4.47;2.78;;;;;;;13.81;90.57;102361.03;10484088;28;20130;-79
2024/01/28 14:41:12;;;;;;;4.55;2.78;;;;;;;13.45;94.26;102358.03;10530999;28;20053;-80
2024/01/28 14:46:12;;;;;;;5.68;2.83;;;;;;;12.83;97.53;102360.41;10530625;28;20040;-80
2024/01/28 14:51:13;;;;;;;4.20;2.45;;;;;;;11.68;100.00;102347.81;10568969;27;20068;-80
2024/01/28 14:56:14;;;;;;;5.70;3.35;;;;;;;10.32;100.00;102346.22;10573516;27;20111;-82
2024/01/28 15:01:14;;;;;;;5.57;2.63;;;;;;;9.36;100.00;102329.66;10574389;27;20035;-80
2024/01/28 15:06:15;;;;;;;6.97;2.25;;;;;;;8.82;100.00;102316.88;10574915;27;20119;-79
2024/01/28 15:11:15;;;;;;;4.22;1.52;;;;;;;8.27;100.00;102296.81;10542077;27;20035;-79
2024/01/28 15:16:16;;;;;;;4.72;2.33;;;;;;;7.93;100.00;102277.66;10538233;27;20546;-79
2024/01/28 15:21:16;;;;;;;6.82;2.42;;;;;;;7.66;100.00;102270.22;10574142;27;20070;-79
2024/01/28 15:26:17;;;;;;;4.20;2.30;;;;;;;7.14;100.00;102249.47;10554294;28;20043;-79
2024/01/28 15:31:17;;;;;;;6.22;2.72;;;;;;;6.83;100.00;102239.06;10580168;27;20696;-79
2024/01/28 15:36:18;;;;;;;10.60;3.80;;;;;;;6.41;100.00;102222.53;10563876;27;20122;-80
2024/01/28 15:41:19;;;;;;;4.70;2.75;;;;;;;6.02;100.00;102219.19;10541434;27;20123;-81
2024/01/28 15:46:19;;;;;;;4.60;2.90;;;;;;;5.61;100.00;102201.75;10566509;28;20833;-78
2024/01/28 15:51:20;;;;;;;10.18;3.67;;;;;;;5.21;100.00;102193.88;10544683;28;20047;-79
2024/01/28 15:56:20;;;;;;;5.32;2.72;;;;;;;5.09;100.00;102169.38;10515964;28;20069;-79
2024/01/28 16:01:21;;;;;;;4.43;2.30;;;;;;;4.97;100.00;102177.00;10479624;28;20068;-79
2024/01/28 16:06:21;;;;;;;4.22;2.50;;;;;;;4.65;100.00;102155.09;10531310;28;20605;-79
2024/01/28 16:11:22;;;;;;;4.97;2.40;;;;;;;4.29;100.00;102150.00;10536134;28;20139;-78
2024/01/28 16:16:23;;;;;;;25.30;3.80;;;;;;;3.99;100.00;102138.56;10512338;28;20565;-78
2024/01/28 16:21:24;;;;;;;6.50;3.50;;;;;;;3.75;100.00;102125.13;10529318;28;20125;-79
2024/01/28 16:26:40;;;;;;;11.52;3.60;;;;;;;3.41;100.00;102122.78;10541354;28;20062;-79
2024/01/28 16:31:47;;;;;;;6.57;2.70;;;;;;;3.02;100.00;102110.38;10541132;28;20546;-79
2024/01/28 16:36:47;;;;;;;7.47;3.95;;;;;;;2.85;100.00;102090.63;10486457;28;20434;-79
2024/01/28 16:41:49;;;;;;;8.73;4.43;;;;;;;2.70;100.00;102078.00;10508330;28;20044;-78
2024/01/28 16:46:49;;;;;;;5.50;2.75;;;;;;;2.53;100.00;102076.31;10497456;28;20044;-79
2024/01/28 16:51:50;;;;;;;11.10;4.32;;;;;;;2.39;100.00;102069.78;10545649;27;20040;-81
2024/01/28 16:56:51;;;;;;;20.58;4.25;;;;;;;2.51;100.00;102051.09;10538533;28;20040;-78
2024/01/28 17:01:54;;;;;;;5.57;3.97;;;;;;;2.47;100.00;102047.28;10523218;27;20040;-79
2024/01/28 17:06:54;;;;;;;8.38;4.35;;;;;;;2.21;100.00;102055.91;10533953;27;20044;-78
2024/01/28 17:11:55;;;;;;;6.90;3.78;;;;;;;1.82;100.00;102056.28;10539461;28;20042;-78
2024/01/28 17:16:55;;;;;;;7.22;4.68;;;;;;;1.64;100.00;102045.91;10567107;28;20123;-78
2024/01/28 17:21:56;;;;;;;7.00;5.25;;;;;;;1.60;100.00;102030.88;10540589;27;20050;-79
2024/01/28 17:26:57;;;;;;;8.35;5.30;;;;;;;1.43;100.00;102037.78;10558062;27;20427;-80
2024/01/28 17:31:57;;;;;;;10.05;4.63;;;;;;;1.31;100.00;102029.72;10549982;27;20039;-79
2024/01/28 17:36:58;;;;;;;7.77;4.57;;;;;;;1.35;100.00;102033.50;10545856;27;20063;-79
2024/01/28 17:41:59;;;;;;;13.70;5.53;;;;;;;1.29;100.00;102025.13;10539523;27;20130;-79
2024/01/28 17:46:59;;;;;;;8.10;4.33;;;;;;;1.22;100.00;102020.09;10549118;28;20046;-80
2024/01/28 17:52:00;;;;;;;9.43;5.40;;;;;;;1.15;100.00;102008.25;10546509;27;20070;-78
2024/01/28 17:57:01;;;;;;;5.78;3.33;;;;;;;1.25;100.00;102005.88;10535686;27;20123;-78
2024/01/28 18:02:02;;;;;;;4.47;3.50;;;;;;;1.31;100.00;102021.97;10586075;27;20159;-77
2024/01/28 18:07:03;;;;;;;12.02;3.25;;;;;;;1.34;100.00;102030.78;10555831;27;20172;-79
2024/01/28 18:12:03;;;;;;;15.48;3.90;;;;;;;1.35;100.00;102035.19;10542883;27;20038;-78
2024/01/28 18:17:04;;;;;;;6.37;4.07;;;;;;;1.29;100.00;102032.88;10545228;27;20039;-78
2024/01/28 18:22:06;;;;;;;7.82;4.55;;;;;;;1.34;100.00;102041.09;10541452;27;20116;-77
2024/01/28 18:27:07;;;;;;;6.88;3.97;;;;;;;1.16;100.00;102036.75;10565249;28;20032;-78
2024/01/28 18:32:07;;;;;;;7.03;3.73;;;;;;;1.03;100.00;102036.22;10578963;28;20898;-79
2024/01/28 18:37:08;;;;;;;3.90;2.60;;;;;;;0.82;100.00;102043.53;10578875;27;20566;-79
2024/01/28 18:42:09;;;;;;;6.13;3.30;;;;;;;0.62;100.00;102051.75;10580747;28;20483;-78
2024/01/28 18:47:14;;;;;;;9.43;5.37;;;;;;;0.55;100.00;102062.13;10551699;27;20069;-80
2024/01/28 18:52:14;;;;;;;6.18;3.17;;;;;;;0.46;100.00;102054.31;10549098;28;20039;-78
2024/01/28 18:57:15;;;;;;;11.60;3.20;;;;;;;0.41;100.00;102065.78;10559881;28;20065;-79
2024/01/28 19:02:18;;;;;;;7.47;3.37;;;;;;;0.36;100.00;102070.47;10546672;28;20482;-78
2024/01/28 19:07:18;;;;;;;4.57;3.22;;;;;;;0.34;100.00;102058.16;10563541;28;20033;-79
2024/01/28 19:12:19;;;;;;;3.93;3.10;;;;;;;0.26;100.00;102070.22;10562741;28;20480;-78
2024/01/28 19:17:19;;;;;;;5.73;3.13;;;;;;;0.11;100.00;102061.72;10604127;28;20129;-78
2024/01/28 19:22:22;;;;;;;4.43;2.57;;;;;;;0.21;100.00;102068.81;10581371;28;20130;-79
2024/01/28 19:27:25;;;;;;;9.52;4.18;;;;;;;0.16;100.00;102057.09;10563289;27;20081;-79
2024/01/28 19:32:25;;;;;;;7.07;3.78;;;;;;;0.08;100.00;102048.50;10592250;27;20043;-79
2024/01/28 19:37:26;;;;;;;6.03;4.27;;;;;;;0.14;100.00;102051.75;10600875;27;20503;-78
2024/01/28 19:42:28;;;;;;;8.17;4.90;;;;;;;0.29;100.00;102047.38;10593837;27;20042;-79
2024/01/28 19:47:29;;;;;;;12.73;7.43;;;;;;;0.27;100.00;102051.44;10569766;28;20038;-79
2024/01/28 19:52:29;;;;;;;8.33;5.87;;;;;;;0.36;100.00;102049.84;10574130;27;20039;-79
2024/01/28 19:57:31;;;;;;;7.63;4.20;;;;;;;0.52;100.00;102047.25;10589214;27;20115;-79
2024/01/28 20:02:31;;;;;;;;;;;;;;;0.41;100.00;102056.41;10563982;27;20519;-79
2024/01/28 20:07:32;;;;;;;9.20;5.95;;;;;;;0.25;100.00;102043.53;10597154;27;19920;-79
2024/01/28 20:12:37;;;;;;;8.47;6.13;;;;;;;0.12;100.00;102051.59;10593917;27;20435;-79
2024/01/28 20:17:38;;;;;;;11.77;6.05;;;;;;;-0.02;100.00;102049.19;10578454;27;20115;-79
2024/01/28 20:22:39;;;;;;;11.17;6.43;;;;;;;-0.13;100.00;102048.00;10575916;27;20031;-78
2024/01/28 20:27:40;;;;;;;8.07;6.80;;;;;;;-0.07;100.00;102058.06;10623320;27;20035;-79
2024/01/28 20:32:41;;;;;;;11.87;7.33;;;;;;;-0.06;100.00;102053.06;10567186;27;20479;-79
2024/01/28 20:37:41;;;;;;;10.20;6.77;;;;;;;-0.15;100.00;102046.91;10591253;27;20153;-79
2024/01/28 20:42:50;;;;;;;15.33;7.67;;;;;;;-0.16;100.00;102058.88;10593400;27;20123;-79
2024/01/28 20:47:50;;;;;;;12.25;6.32;;;;;;;-0.09;100.00;102049.28;10599746;27;20129;-79
2024/01/28 20:52:51;;;;;;;14.93;7.93;;;;;;;0.06;100.00;102057.72;10581344;27;20471;-79
2024/01/28 20:57:51;;;;;;;9.53;7.00;;;;;;;0.03;100.00;102054.81;10587721;27;20108;-78
2024/01/28 21:02:52;;;;;;;9.67;7.03;;;;;;;-0.08;100.00;102062.28;10562136;27;20123;-79
2024/01/28 21:07:52;;;;;;;12.13;8.07;;;;;;;-0.15;100.00;102064.94;10595620;27;20118;-78
2024/01/28 21:12:53;;;;;;;9.70;6.17;;;;;;;-0.16;100.00;102063.09;10562581;27;20126;-79
2024/01/28 21:17:55;;;;;;;9.20;6.50;;;;;;;-0.20;100.00;102060.94;10520545;27;20035;-79
2024/01/28 21:22:55;;;;;;;9.65;6.22;;;;;;;-0.36;100.00;102063.50;10550928;27;20414;-78
2024/01/28 21:27:56;;;;;;;10.93;7.60;;;;;;;-0.47;100.00;102070.00;10577398;27;20130;-79
2024/01/28 21:32:56;;;;;;;7.50;5.90;;;;;;;-0.54;100.00;102067.50;10584352;27;20114;-79
2024/01/28 21:37:57;;;;;;;10.47;6.33;;;;;;;-0.63;100.00;102075.13;10575781;27;20118;-79
2024/01/28 21:42:57;;;;;;;7.50;4.90;;;;;;;-0.71;100.00;102079.38;10563903;27;20147;-80
2024/01/28 21:47:58;;;;;;;12.17;8.07;;;;;;;-0.69;100.00;102075.31;10573805;27;20043;-79
2024/01/28 21:53:00;;;;;;;10.90;5.33;;;;;;;-0.71;100.00;102081.06;10576656;27;20569;-79
2024/01/28 21:58:00;;;;;;;9.35;5.85;;;;;;;-0.67;100.00;102072.94;10568170;28;20096;-79
2024/01/28 22:03:01;;;;;;;6.30;4.47;;;;;;;-0.68;100.00;102074.59;10560767;27;20424;-80
2024/01/28 22:08:02;;;;;;;12.07;6.20;;;;;;;-0.62;100.00;102070.13;10564001;27;20095;-79
2024/01/28 22:13:03;;;;;;;10.35;6.68;;;;;;;-0.57;100.00;102069.72;10575164;27;20065;-79
2024/01/28 22:18:04;;;;;;;9.97;5.90;;;;;;;-0.54;100.00;102071.00;10572407;28;20118;-80
2024/01/28 22:23:04;;;;;;;8.18;4.75;;;;;;;-0.53;100.00;102069.31;10543743;28;20043;-78
2024/01/28 22:28:05;;;;;;;6.67;4.43;;;;;;;-0.50;100.00;102067.09;10580088;28;20452;-79
2024/01/28 22:33:05;;;;;;;6.30;4.40;;;;;;;-0.52;100.00;102061.78;10577815;28;20035;-79
2024/01/28 22:38:06;;;;;;;6.80;5.93;;;;;;;-0.47;100.00;102052.00;10560211;28;20039;-79
2024/01/28 22:43:07;;;;;;;8.93;5.53;;;;;;;-0.45;100.00;102056.59;10586627;28;20052;-79